Time;durP1;ratioP1;P1;durP2;ratioP2;P2;SDS_P1;SDS_P2;PMS_P1;PMS_P2;Temp;Humidity;BMP_temperature;BMP_pressure;BME280_temperature;BME280_humidity;BME280_pressure;Samples;Min_cycle;Max_cycle;Signal;HPM_P1;HPM_P2
2023/07/14 00:04:25;;;;;;;2.03;1.80;;;22.70;29.90;;;;;;10520385;27;20920;-71
2023/07/14 00:09:31;;;;;;;2.53;1.90;;;22.70;30.60;;;;;;10521987;27;20242;-71
2023/07/14 00:14:35;;;;;;;1.67;1.57;;;22.70;30.60;;;;;;10524169;27;20227;-70
2023/07/14 00:19:38;;;;;;;2.10;1.90;;;22.60;30.20;;;;;;10520398;27;20223;-71
2023/07/14 00:24:43;;;;;;;2.40;1.90;;;22.60;30.20;;;;;;10520712;28;20227;-71
2023/07/14 00:29:47;;;;;;;2.07;1.87;;;22.60;30.90;;;;;;10525042;27;20770;-71
2023/07/14 00:34:50;;;;;;;3.37;1.90;;;22.60;30.60;;;;;;10524134;27;20220;-71
2023/07/14 00:39:55;;;;;;;2.40;1.63;;;22.60;30.70;;;;;;10519808;27;20577;-71
2023/07/14 00:44:58;;;;;;;1.80;1.70;;;22.60;30.80;;;;;;10521220;27;20226;-71
2023/07/14 00:50:03;;;;;;;2.53;1.97;;;22.60;30.70;;;;;;10524989;27;20227;-71
2023/07/14 00:55:30;;;;;;;2.03;1.73;;;22.50;30.90;;;;;;10519220;28;20223;-71
2023/07/14 01:00:33;;;;;;;2.00;1.80;;;22.50;31.30;;;;;;10524654;27;20247;-71
2023/07/14 01:05:37;;;;;;;3.07;1.90;;;22.60;30.90;;;;;;10513983;28;20234;-71
2023/07/14 01:10:41;;;;;;;2.40;1.93;;;22.50;30.90;;;;;;10519466;28;20238;-71
2023/07/14 01:15:45;;;;;;;3.83;2.40;;;22.50;31.50;;;;;;10522656;27;20634;-71
2023/07/14 01:20:48;;;;;;;2.10;1.80;;;22.40;31.30;;;;;;10520026;27;20224;-71
2023/07/14 01:26:08;;;;;;;4.30;2.10;;;22.10;31.30;;;;;;10526252;27;20238;-68
2023/07/14 01:31:17;;;;;;;1.70;1.60;;;22.00;33.10;;;;;;10525323;27;20738;-68
2023/07/14 01:36:24;;;;;;;2.10;1.90;;;22.00;33.00;;;;;;10531663;27;20223;-68
2023/07/14 01:41:27;;;;;;;2.10;1.97;;;21.90;32.60;;;;;;10524644;28;20227;-67
2023/07/14 01:46:32;;;;;;;2.60;1.80;;;22.00;32.50;;;;;;10531540;27;20310;-68
2023/07/14 01:51:40;;;;;;;2.43;1.80;;;22.00;32.70;;;;;;10526275;28;20231;-68
2023/07/14 01:56:44;;;;;;;2.30;2.07;;;22.00;32.70;;;;;;10527249;27;20227;-68
2023/07/14 02:01:52;;;;;;;2.20;1.93;;;22.10;32.40;;;;;;10522719;27;20239;-68
2023/07/14 02:06:57;;;;;;;2.57;2.07;;;22.00;33.10;;;;;;10528822;28;20243;-68
2023/07/14 02:12:04;;;;;;;1.97;1.87;;;22.00;32.50;;;;;;10526692;28;20238;-68
2023/07/14 02:17:18;;;;;;;3.47;1.70;;;21.90;32.60;;;;;;10527238;28;20228;-68
2023/07/14 02:22:22;;;;;;;2.93;1.90;;;21.90;34.40;;;;;;10520322;27;20230;-68
2023/07/14 02:27:25;;;;;;;1.97;1.87;;;21.90;32.70;;;;;;10523315;28;20223;-68
2023/07/14 02:32:36;;;;;;;2.23;1.70;;;21.90;32.60;;;;;;10531819;27;20254;-68
2023/07/14 02:38:03;;;;;;;2.13;1.90;;;21.80;33.40;;;;;;10524454;27;20274;-68
2023/07/14 02:43:08;;;;;;;2.30;1.93;;;21.80;33.30;;;;;;10523586;27;20228;-68
2023/07/14 02:48:16;;;;;;;2.60;1.90;;;21.70;32.60;;;;;;10522927;27;20221;-68
2023/07/14 02:53:19;;;;;;;4.43;2.13;;;21.60;33.10;;;;;;10525371;27;20722;-67
2023/07/14 02:58:23;;;;;;;2.00;1.90;;;21.60;32.50;;;;;;10529966;27;20841;-68
2023/07/14 03:03:28;;;;;;;2.27;1.90;;;21.50;32.70;;;;;;10526019;27;20314;-68
2023/07/14 03:08:31;;;;;;;3.13;1.90;;;21.50;33.20;;;;;;10524682;27;20315;-68
2023/07/14 03:13:35;;;;;;;5.30;2.20;;;21.40;32.60;;;;;;10522312;27;20281;-68
2023/07/14 03:18:39;;;;;;;3.57;1.90;;;21.40;32.70;;;;;;10516913;28;20230;-68
2023/07/14 03:23:43;;;;;;;2.60;2.00;;;21.30;32.90;;;;;;10519556;28;20243;-68
2023/07/14 03:28:46;;;;;;;2.00;1.87;;;21.30;32.50;;;;;;10528924;27;20231;-68
2023/07/14 03:33:50;;;;;;;1.87;1.77;;;21.30;32.70;;;;;;10524855;27;20800;-68
2023/07/14 03:39:23;;;;;;;2.30;1.83;;;21.20;32.90;;;;;;10522639;27;20234;-68
2023/07/14 03:44:27;;;;;;;3.17;2.33;;;21.10;33.00;;;;;;10523722;27;20788;-68
2023/07/14 03:49:31;;;;;;;2.57;2.20;;;21.10;32.50;;;;;;10521580;27;20231;-68
2023/07/14 03:54:34;;;;;;;2.40;1.90;;;21.00;32.90;;;;;;10522392;28;20231;-68
2023/07/14 03:59:38;;;;;;;2.27;2.07;;;21.00;32.60;;;;;;10527814;27;20226;-68
2023/07/14 04:04:43;;;;;;;3.03;2.60;;;20.90;32.70;;;;;;10523123;27;20231;-68
2023/07/14 04:09:46;;;;;;;3.67;2.50;;;20.80;33.40;;;;;;10518920;27;20235;-68
2023/07/14 04:14:49;;;;;;;6.50;3.10;;;20.80;33.20;;;;;;10522851;27;20313;-68
2023/07/14 04:19:54;;;;;;;4.60;2.77;;;20.70;33.40;;;;;;10517397;27;20228;-67
2023/07/14 04:24:58;;;;;;;4.30;2.60;;;20.50;34.20;;;;;;10518396;28;20227;-68
2023/07/14 04:30:02;;;;;;;3.97;2.57;;;20.40;33.90;;;;;;10520638;27;20238;-68
2023/07/14 04:35:08;;;;;;;2.50;2.30;;;20.40;34.20;;;;;;10522146;27;20223;-68
2023/07/14 04:40:12;;;;;;;3.23;2.20;;;20.40;34.90;;;;;;10515827;27;20224;-71
2023/07/14 04:45:38;;;;;;;2.20;2.00;;;20.40;34.50;;;;;;10520795;27;21058;-74
2023/07/14 04:50:45;;;;;;;3.57;2.70;;;20.40;35.00;;;;;;10517505;27;20227;-74
2023/07/14 04:55:49;;;;;;;2.60;2.40;;;20.40;35.70;;;;;;10513709;28;20707;-71
2023/07/14 05:00:52;;;;;;;2.67;2.47;;;20.30;34.90;;;;;;10516584;28;20332;-71
2023/07/14 05:05:57;;;;;;;3.67;2.60;;;20.20;35.00;;;;;;10518198;27;20227;-71
2023/07/14 05:11:00;;;;;;;4.57;2.73;;;20.10;35.90;;;;;;10529095;27;20228;-71
2023/07/14 05:16:03;;;;;;;3.87;2.67;;;20.10;35.50;;;;;;10515093;27;20231;-67
2023/07/14 05:21:09;;;;;;;7.87;2.73;;;20.20;35.60;;;;;;10513209;28;21035;-65
2023/07/14 05:26:12;;;;;;;3.50;2.70;;;20.20;36.30;;;;;;10520307;27;20227;-67
2023/07/14 05:31:16;;;;;;;3.20;2.90;;;20.30;36.20;;;;;;10522136;27;20219;-70
2023/07/14 05:36:21;;;;;;;4.37;3.03;;;20.40;36.50;;;;;;10529756;28;20219;-67
2023/07/14 05:41:24;;;;;;;3.17;2.87;;;20.50;36.90;;;;;;10525517;27;20234;-67
2023/07/14 05:46:27;;;;;;;4.37;3.47;;;20.70;36.50;;;;;;10528566;27;20238;-67
2023/07/14 05:51:32;;;;;;;3.43;3.13;;;20.80;36.30;;;;;;10527360;27;20692;-67
2023/07/14 05:56:35;;;;;;;3.23;2.93;;;21.00;36.50;;;;;;10521893;27;20227;-67
2023/07/14 06:01:39;;;;;;;4.97;2.90;;;21.20;35.90;;;;;;10533354;27;21115;-73
2023/07/14 06:06:44;;;;;;;3.77;2.53;;;21.30;35.50;;;;;;10530359;27;20280;-73
2023/07/14 06:11:47;;;;;;;4.03;2.10;;;21.40;35.60;;;;;;10528196;27;20220;-73
2023/07/14 06:16:50;;;;;;;2.50;2.30;;;21.60;35.10;;;;;;10529008;27;20234;-73
2023/07/14 06:21:55;;;;;;;5.10;2.30;;;21.80;35.10;;;;;;10533004;27;20253;-73
2023/07/14 06:26:58;;;;;;;2.87;2.10;;;22.00;35.00;;;;;;10533938;27;20227;-73
2023/07/14 06:32:02;;;;;;;2.33;2.10;;;22.20;34.80;;;;;;10526061;27;20319;-74
2023/07/14 06:37:07;;;;;;;2.50;2.17;;;22.40;34.70;;;;;;10523713;27;20300;-74
2023/07/14 06:42:10;;;;;;;2.10;2.00;;;22.60;34.40;;;;;;10525094;28;20315;-74
2023/07/14 06:47:14;;;;;;;2.93;2.00;;;22.80;34.50;;;;;;10525304;27;20228;-72
2023/07/14 06:52:18;;;;;;;2.90;1.90;;;23.00;34.40;;;;;;10525274;27;20865;-72
2023/07/14 06:57:22;;;;;;;3.03;2.10;;;23.10;34.30;;;;;;10521634;28;20233;-72
2023/07/14 07:02:26;;;;;;;2.03;1.90;;;23.30;34.20;;;;;;10526255;27;20273;-73
2023/07/14 07:07:30;;;;;;;2.47;2.17;;;23.50;34.10;;;;;;10523167;27;20310;-73
2023/07/14 07:12:34;;;;;;;2.10;1.83;;;23.60;33.50;;;;;;10522083;28;20223;-72
2023/07/14 07:17:38;;;;;;;1.87;1.67;;;23.80;33.40;;;;;;10520730;28;20294;-73
2023/07/14 07:22:45;;;;;;;1.63;1.53;;;23.90;32.70;;;;;;10515774;27;20310;-72
2023/07/14 07:27:48;;;;;;;1.90;1.60;;;24.10;31.80;;;;;;10516591;28;20902;-74
2023/07/14 07:32:52;;;;;;;3.33;1.70;;;24.30;32.10;;;;;;10523142;27;20228;-73
2023/07/14 07:37:59;;;;;;;3.50;1.80;;;24.50;32.00;;;;;;10522631;27;20231;-73
2023/07/14 07:43:02;;;;;;;2.07;1.80;;;24.80;31.10;;;;;;10519388;28;20228;-72
2023/07/14 07:48:06;;;;;;;2.00;1.70;;;25.00;30.80;;;;;;10518980;27;20277;-73
2023/07/14 07:53:11;;;;;;;1.77;1.67;;;25.20;30.80;;;;;;10523761;27;20227;-70
2023/07/14 07:58:14;;;;;;;2.20;2.00;;;25.40;30.00;;;;;;10518392;27;20307;-70
2023/07/14 08:03:17;;;;;;;1.87;1.70;;;25.70;30.00;;;;;;10521124;28;20245;-70
2023/07/14 08:08:22;;;;;;;2.50;1.90;;;25.90;29.70;;;;;;10515997;28;20230;-70
2023/07/14 08:13:28;;;;;;;2.77;1.80;;;26.10;28.80;;;;;;10520824;28;20222;-69
2023/07/14 08:18:32;;;;;;;2.90;1.90;;;26.30;29.40;;;;;;10515470;27;20233;-70
2023/07/14 08:23:40;;;;;;;2.27;1.70;;;26.50;29.10;;;;;;10521963;27;20215;-70
2023/07/14 08:28:43;;;;;;;2.03;1.60;;;26.70;28.20;;;;;;10520920;28;20273;-70
2023/07/14 08:33:47;;;;;;;3.27;1.73;;;26.90;28.30;;;;;;10517007;28;20235;-70
2023/07/14 08:38:54;;;;;;;2.03;1.83;;;27.10;28.40;;;;;;10517109;27;20232;-70
2023/07/14 08:44:12;;;;;;;2.77;1.97;;;27.30;27.50;;;;;;10515251;27;20232;-70
2023/07/14 08:49:22;;;;;;;1.97;1.70;;;27.50;26.70;;;;;;10518692;27;20227;-70
2023/07/14 08:54:39;;;;;;;2.00;1.80;;;27.80;26.70;;;;;;10519404;28;20310;-74
2023/07/14 08:59:43;;;;;;;5.63;1.90;;;27.90;26.50;;;;;;10520921;28;20256;-74
2023/07/14 09:04:56;;;;;;;2.33;1.73;;;28.10;27.00;;;;;;10521314;27;20245;-74
2023/07/14 09:10:01;;;;;;;2.93;2.20;;;28.30;25.90;;;;;;10515590;27;20614;-74
2023/07/14 09:15:08;;;;;;;1.77;1.67;;;28.50;26.10;;;;;;10527075;27;20224;-73
2023/07/14 09:20:30;;;;;;;4.57;1.87;;;28.60;25.50;;;;;;10520347;28;20245;-70
2023/07/14 09:25:43;;;;;;;2.30;2.10;;;28.80;25.60;;;;;;10527932;27;20306;-70
2023/07/14 09:30:48;;;;;;;2.93;1.90;;;28.90;24.90;;;;;;10526043;28;20239;-70
2023/07/14 09:35:52;;;;;;;2.07;1.80;;;29.10;25.30;;;;;;10525506;27;20739;-70
2023/07/14 09:41:01;;;;;;;3.63;1.87;;;29.20;25.70;;;;;;10521028;28;20235;-70
2023/07/14 09:46:04;;;;;;;3.40;1.80;;;29.30;24.20;;;;;;10528398;28;20231;-70
2023/07/14 09:51:13;;;;;;;1.90;1.80;;;29.30;24.80;;;;;;10527034;28;20326;-70
2023/07/14 09:56:25;;;;;;;2.07;1.83;;;29.30;23.70;;;;;;10528634;27;20215;-70
2023/07/14 10:01:30;;;;;;;1.90;1.80;;;29.40;23.40;;;;;;10518991;28;20711;-70
2023/07/14 10:06:36;;;;;;;2.03;1.60;;;29.50;24.40;;;;;;10519283;28;20794;-70
2023/07/14 10:11:43;;;;;;;2.10;1.30;;;29.70;24.30;;;;;;10527463;27;20227;-70
2023/07/14 10:16:48;;;;;;;3.20;1.80;;;29.80;23.00;;;;;;10526502;27;20234;-70
2023/07/14 10:21:55;;;;;;;3.07;1.60;;;29.80;23.50;;;;;;10521531;28;20320;-73
2023/07/14 10:27:02;;;;;;;1.70;1.60;;;29.90;22.90;;;;;;10523907;27;20230;-71
2023/07/14 10:32:11;;;;;;;1.90;1.80;;;30.00;22.20;;;;;;10522974;27;20895;-72
2023/07/14 10:37:21;;;;;;;2.33;1.80;;;30.10;22.60;;;;;;10522795;27;20907;-74
2023/07/14 10:42:35;;;;;;;2.30;1.87;;;30.20;22.10;;;;;;10525402;27;20232;-75
2023/07/14 10:47:50;;;;;;;2.50;1.97;;;30.30;22.70;;;;;;10528465;27;20238;-66
2023/07/14 10:52:58;;;;;;;1.97;1.87;;;30.50;21.60;;;;;;10522306;27;20873;-67
2023/07/14 10:58:10;;;;;;;2.03;1.80;;;30.50;22.00;;;;;;10517228;28;20220;-66
2023/07/14 11:03:27;;;;;;;2.10;2.00;;;30.50;21.40;;;;;;10520998;27;20330;-67
2023/07/14 11:08:33;;;;;;;1.80;1.70;;;30.50;21.40;;;;;;10519233;28;20223;-72
2023/07/14 11:13:50;;;;;;;1.90;1.70;;;30.60;21.80;;;;;;10522307;27;20568;-72
2023/07/14 11:19:02;;;;;;;2.63;1.70;;;30.70;21.80;;;;;;10523625;27;20258;-72
2023/07/14 11:24:18;;;;;;;1.80;1.70;;;30.70;21.50;;;;;;10527255;27;20712;-70
2023/07/14 11:29:26;;;;;;;2.10;1.90;;;30.70;21.00;;;;;;10523663;27;20235;-71
2023/07/14 11:34:34;;;;;;;1.90;1.80;;;30.80;21.20;;;;;;10524924;27;20230;-71
2023/07/14 11:39:43;;;;;;;1.80;1.70;;;30.80;21.20;;;;;;10531583;27;20266;-71
2023/07/14 11:44:50;;;;;;;2.20;2.00;;;30.80;20.30;;;;;;10529149;27;20241;-70
2023/07/14 11:49:55;;;;;;;2.13;1.93;;;30.90;20.50;;;;;;10530928;27;20322;-71
2023/07/14 11:55:04;;;;;;;1.80;1.70;;;30.90;21.00;;;;;;10529044;27;20723;-71
2023/07/14 12:00:22;;;;;;;1.90;1.80;;;30.90;20.40;;;;;;10523691;27;20233;-71
2023/07/14 12:05:38;;;;;;;1.90;1.80;;;30.90;20.70;;;;;;10526928;27;20237;-71
2023/07/14 12:10:48;;;;;;;2.83;1.80;;;30.90;20.80;;;;;;10526694;27;20246;-74
2023/07/14 12:16:19;;;;;;;2.00;1.80;;;30.90;20.00;;;;;;10528473;28;20228;-74
2023/07/14 12:21:33;;;;;;;1.70;1.60;;;30.90;20.20;;;;;;10525843;28;20241;-74
2023/07/14 12:26:40;;;;;;;1.67;1.57;;;30.90;19.80;;;;;;10530196;27;20820;-75
2023/07/14 12:31:50;;;;;;;1.90;1.80;;;31.00;19.90;;;;;;10526935;28;20236;-74
2023/07/14 12:36:53;;;;;;;1.90;1.70;;;31.00;20.30;;;;;;10520790;28;20223;-75
2023/07/14 12:41:57;;;;;;;1.70;1.60;;;31.00;20.30;;;;;;10529843;28;22228;-75
2023/07/14 12:47:02;;;;;;;1.73;1.63;;;31.10;20.20;;;;;;10529996;27;20249;-74
2023/07/14 12:52:07;;;;;;;1.90;1.80;;;31.10;19.70;;;;;;10521009;28;20314;-74
2023/07/14 12:57:13;;;;;;;1.67;1.50;;;31.00;19.70;;;;;;10527503;27;20592;-74
2023/07/14 13:02:18;;;;;;;2.43;2.07;;;30.90;19.30;;;;;;10529303;28;20225;-74
2023/07/14 13:07:31;;;;;;;1.87;1.63;;;30.90;19.70;;;;;;10529768;27;20237;-74
2023/07/14 13:12:35;;;;;;;2.50;1.57;;;30.90;19.40;;;;;;10527441;28;20230;-74
2023/07/14 13:17:39;;;;;;;1.97;1.87;;;30.90;20.50;;;;;;10520560;27;20223;-75
2023/07/14 13:22:43;;;;;;;2.00;1.77;;;30.90;19.70;;;;;;10530779;28;20250;-74
2023/07/14 13:27:46;;;;;;;1.80;1.70;;;31.00;19.80;;;;;;10534861;27;20239;-74
2023/07/14 13:32:52;;;;;;;1.70;1.60;;;31.00;20.00;;;;;;10541015;27;20257;-75
2023/07/14 13:37:59;;;;;;;4.73;1.80;;;30.90;19.50;;;;;;10537511;28;20840;-74
2023/07/14 13:43:03;;;;;;;1.87;1.70;;;30.90;19.70;;;;;;10530539;27;20791;-74
2023/07/14 13:48:24;;;;;;;1.77;1.67;;;30.90;20.00;;;;;;10534585;28;20222;-70
2023/07/14 13:53:29;;;;;;;3.17;1.80;;;30.90;19.60;;;;;;10533067;27;20226;-67
2023/07/14 13:58:33;;;;;;;1.60;1.50;;;31.00;19.40;;;;;;10533957;27;20649;-68
2023/07/14 14:03:38;;;;;;;2.50;1.80;;;30.90;19.90;;;;;;10533053;27;20227;-67
2023/07/14 14:08:42;;;;;;;1.60;1.50;;;30.90;19.60;;;;;;10532502;28;20227;-67
2023/07/14 14:13:45;;;;;;;2.20;1.90;;;30.90;19.50;;;;;;10535279;27;20300;-67
2023/07/14 14:18:51;;;;;;;2.37;1.70;;;30.90;19.70;;;;;;10531170;27;20692;-68
2023/07/14 14:23:54;;;;;;;1.90;1.80;;;30.90;18.90;;;;;;10525322;27;20219;-67
2023/07/14 14:28:57;;;;;;;1.73;1.63;;;30.90;19.20;;;;;;10536581;27;20234;-66
2023/07/14 14:34:02;;;;;;;1.70;1.57;;;31.00;19.30;;;;;;10525301;28;20222;-70
2023/07/14 14:39:13;;;;;;;2.30;1.77;;;31.10;18.80;;;;;;10532101;27;20323;-70
2023/07/14 14:44:18;;;;;;;1.83;1.73;;;31.20;18.20;;;;;;10530304;28;20258;-74
2023/07/14 14:49:24;;;;;;;2.50;1.63;;;31.30;18.40;;;;;;10531139;27;20308;-75
2023/07/14 14:54:27;;;;;;;1.60;1.50;;;31.40;18.10;;;;;;10533949;28;20230;-75
2023/07/14 14:59:31;;;;;;;1.90;1.80;;;31.50;18.10;;;;;;10530272;27;20707;-70
2023/07/14 15:04:36;;;;;;;1.70;1.60;;;31.50;18.10;;;;;;10530915;27;20223;-70
2023/07/14 15:09:40;;;;;;;1.60;1.50;;;31.50;17.70;;;;;;10530283;28;20343;-66
2023/07/14 15:14:48;;;;;;;3.03;1.73;;;31.50;18.20;;;;;;10534800;27;20223;-68
2023/07/14 15:19:54;;;;;;;5.67;2.00;;;31.50;18.00;;;;;;10539943;28;20228;-65
2023/07/14 15:24:57;;;;;;;2.53;1.77;;;31.60;17.90;;;;;;10536301;27;20223;-70
2023/07/14 15:30:03;;;;;;;1.77;1.67;;;31.70;18.00;;;;;;10534884;28;20258;-71
2023/07/14 15:35:14;;;;;;;1.70;1.60;;;31.70;17.50;;;;;;10526948;27;20318;-71
2023/07/14 15:40:19;;;;;;;2.07;1.87;;;31.70;17.50;;;;;;10523700;27;20281;-73
2023/07/14 15:45:24;;;;;;;2.43;1.73;;;31.70;17.70;;;;;;10524523;27;20222;-69
2023/07/14 15:50:30;;;;;;;2.33;1.80;;;31.80;17.60;;;;;;10530132;27;20240;-71
2023/07/14 15:55:36;;;;;;;1.83;1.73;;;31.80;17.50;;;;;;10527190;28;20337;-67
2023/07/14 16:00:39;;;;;;;1.67;1.57;;;31.90;17.50;;;;;;10525442;27;20223;-71
2023/07/14 16:05:45;;;;;;;1.53;1.43;;;31.90;17.40;;;;;;10529472;28;20276;-72
2023/07/14 16:10:48;;;;;;;4.10;1.40;;;31.90;17.30;;;;;;10532299;27;20842;-71
2023/07/14 16:15:51;;;;;;;1.70;1.53;;;31.90;17.40;;;;;;10528408;27;20270;-71
2023/07/14 16:20:57;;;;;;;1.70;1.60;;;32.00;17.30;;;;;;10531396;28;20238;-71
2023/07/14 16:26:00;;;;;;;1.90;1.70;;;32.00;17.20;;;;;;10527803;28;20667;-71
2023/07/14 16:31:10;;;;;;;1.70;1.60;;;32.00;17.40;;;;;;10527405;28;20317;-71
2023/07/14 16:36:18;;;;;;;1.80;1.70;;;32.00;17.00;;;;;;10524815;27;20226;-71
2023/07/14 16:41:21;;;;;;;4.23;1.80;;;31.90;16.90;;;;;;10527799;28;20244;-67
2023/07/14 16:46:47;;;;;;;3.60;1.63;;;32.00;17.10;;;;;;10526906;27;20314;-72
2023/07/14 16:51:52;;;;;;;1.90;1.80;;;32.00;16.60;;;;;;10529323;27;20248;-72
2023/07/14 16:56:57;;;;;;;2.10;1.90;;;32.00;16.90;;;;;;10531699;27;20285;-72
2023/07/14 17:02:02;;;;;;;2.10;1.90;;;32.10;17.10;;;;;;10520204;28;20231;-74
2023/07/14 17:07:10;;;;;;;1.70;1.60;;;32.00;17.10;;;;;;10518782;28;20318;-74
2023/07/14 17:12:14;;;;;;;2.47;1.60;;;32.00;16.90;;;;;;10522659;27;20233;-73
2023/07/14 17:17:18;;;;;;;6.57;5.27;;;32.00;17.20;;;;;;10508487;28;20219;-71
2023/07/14 17:22:24;;;;;;;3.37;3.07;;;31.90;17.60;;;;;;10517815;27;20258;-70
2023/07/14 17:27:27;;;;;;;3.63;2.10;;;31.80;17.50;;;;;;10517421;27;20310;-70
2023/07/14 17:32:30;;;;;;;1.90;1.80;;;31.70;17.60;;;;;;10534749;27;20227;-70
2023/07/14 17:37:35;;;;;;;2.07;1.97;;;31.70;17.80;;;;;;10523936;27;20261;-70
2023/07/14 17:42:38;;;;;;;4.60;4.30;;;31.70;17.70;;;;;;10524836;27;20233;-70
2023/07/14 17:47:41;;;;;;;2.60;2.40;;;31.70;17.80;;;;;;10525111;28;20230;-67
2023/07/14 17:52:48;;;;;;;2.03;1.90;;;31.70;17.80;;;;;;10526155;27;20270;-67
2023/07/14 17:57:52;;;;;;;2.43;1.83;;;31.70;17.70;;;;;;10525698;27;20227;-73
2023/07/14 18:02:59;;;;;;;2.10;1.87;;;31.60;17.60;;;;;;10519906;28;20220;-73
2023/07/14 18:08:12;;;;;;;2.00;1.90;;;31.60;17.80;;;;;;10532574;28;20251;-71
2023/07/14 18:13:19;;;;;;;1.90;1.73;;;31.40;18.10;;;;;;10531466;28;20228;-73
2023/07/14 18:18:24;;;;;;;1.70;1.60;;;31.40;18.40;;;;;;10530672;27;20266;-72
2023/07/14 18:23:31;;;;;;;3.00;1.77;;;31.30;18.30;;;;;;10536139;28;20247;-73
2023/07/14 18:28:34;;;;;;;1.80;1.70;;;31.20;18.50;;;;;;10535139;28;20240;-73
2023/07/14 18:33:37;;;;;;;2.13;2.03;;;31.20;18.60;;;;;;10529363;27;20227;-73
2023/07/14 18:38:42;;;;;;;1.80;1.70;;;31.10;18.90;;;;;;10530227;28;20220;-73
2023/07/14 18:43:45;;;;;;;5.17;4.67;;;31.10;19.10;;;;;;10534888;27;20310;-73
2023/07/14 18:48:50;;;;;;;13.83;11.50;;;31.10;19.10;;;;;;10534770;27;20227;-71
2023/07/14 18:53:57;;;;;;;7.33;6.37;;;31.00;19.40;;;;;;10530478;27;20223;-67
2023/07/14 18:59:01;;;;;;;3.83;2.93;;;31.00;20.10;;;;;;10523050;28;20283;-67
2023/07/14 19:04:05;;;;;;;2.50;2.30;;;30.90;20.20;;;;;;10523713;27;20592;-68
2023/07/14 19:09:15;;;;;;;2.53;1.93;;;30.80;20.30;;;;;;10516513;27;20389;-68
2023/07/14 19:14:19;;;;;;;2.23;1.97;;;30.60;21.40;;;;;;10513850;28;20302;-67
2023/07/14 19:19:23;;;;;;;2.80;2.60;;;30.50;20.90;;;;;;10515506;27;20917;-67
2023/07/14 19:24:30;;;;;;;3.90;2.90;;;30.30;21.30;;;;;;10514811;27;20725;-67
2023/07/14 19:29:33;;;;;;;4.93;3.00;;;30.20;21.20;;;;;;10514006;27;20236;-67
2023/07/14 19:34:37;;;;;;;4.47;4.17;;;30.10;21.20;;;;;;10514665;27;20273;-67
2023/07/14 19:39:42;;;;;;;7.47;4.87;;;29.90;21.10;;;;;;10515888;28;20311;-67
2023/07/14 19:44:46;;;;;;;5.40;5.00;;;29.80;21.40;;;;;;10505650;27;20280;-67
2023/07/14 19:49:51;;;;;;;5.53;4.00;;;29.60;21.30;;;;;;10516597;27;20312;-67
2023/07/14 19:54:56;;;;;;;2.80;2.60;;;29.50;21.80;;;;;;10523204;27;20947;-67
2023/07/14 19:59:59;;;;;;;2.70;2.50;;;29.30;23.00;;;;;;10512264;28;20231;-67
2023/07/14 20:05:10;;;;;;;2.67;2.40;;;29.20;22.30;;;;;;10508307;28;20211;-67
2023/07/14 20:10:18;;;;;;;4.23;2.63;;;29.00;22.40;;;;;;10509608;27;20228;-67
2023/07/14 20:15:23;;;;;;;2.60;2.40;;;28.80;22.80;;;;;;10513820;27;20680;-67
2023/07/14 20:20:27;;;;;;;2.70;2.50;;;28.70;22.80;;;;;;10511779;27;20870;-68
2023/07/14 20:25:32;;;;;;;2.70;2.50;;;28.40;22.70;;;;;;10524366;27;20565;-68
2023/07/14 20:30:35;;;;;;;2.37;2.20;;;28.20;23.10;;;;;;10541105;27;20273;-68
2023/07/14 20:35:38;;;;;;;2.80;2.60;;;28.10;23.20;;;;;;10514781;28;20319;-73
2023/07/14 20:40:44;;;;;;;3.07;2.87;;;27.90;23.40;;;;;;10518015;28;20707;-73
2023/07/14 20:45:48;;;;;;;3.10;2.80;;;27.70;23.80;;;;;;10520377;27;20678;-73
2023/07/14 20:50:54;;;;;;;2.50;2.30;;;27.40;23.70;;;;;;10518200;27;20219;-73
2023/07/14 20:56:04;;;;;;;4.23;3.90;;;27.10;24.30;;;;;;10516894;27;20223;-73
2023/07/14 21:01:14;;;;;;;3.37;3.07;;;26.90;24.50;;;;;;10519641;27;20306;-72
2023/07/14 21:06:21;;;;;;;3.23;3.03;;;26.80;25.20;;;;;;10513712;28;20271;-73
2023/07/14 21:11:27;;;;;;;3.07;2.77;;;26.60;25.10;;;;;;10520313;28;20639;-74
2023/07/14 21:16:31;;;;;;;4.63;2.70;;;26.40;25.60;;;;;;10518635;27;20230;-73
2023/07/14 21:21:36;;;;;;;3.07;2.87;;;26.20;25.30;;;;;;10526968;27;20228;-73
2023/07/14 21:26:40;;;;;;;4.80;4.00;;;26.00;25.80;;;;;;10526083;27;21125;-73
2023/07/14 21:31:44;;;;;;;5.80;5.30;;;25.90;26.00;;;;;;10524591;28;20272;-73
2023/07/14 21:36:48;;;;;;;6.43;5.83;;;25.70;25.70;;;;;;10529675;27;20237;-73
2023/07/14 21:41:54;;;;;;;4.20;3.80;;;25.50;26.30;;;;;;10528078;27;20239;-73
2023/07/14 21:46:57;;;;;;;2.93;2.73;;;25.20;27.10;;;;;;10540821;27;20733;-73
2023/07/14 21:52:00;;;;;;;3.00;2.80;;;24.90;26.80;;;;;;10533150;27;20228;-73
2023/07/14 21:57:06;;;;;;;3.47;2.90;;;24.60;27.00;;;;;;10534302;27;20598;-73
2023/07/14 22:02:13;;;;;;;2.90;2.60;;;24.40;28.30;;;;;;10528513;28;20244;-73
2023/07/14 22:07:16;;;;;;;2.57;2.37;;;24.40;28.30;;;;;;10539841;27;20633;-73
2023/07/14 22:12:21;;;;;;;2.77;2.57;;;24.40;27.90;;;;;;10533860;28;20220;-73
2023/07/14 22:17:24;;;;;;;2.57;2.37;;;24.50;28.40;;;;;;10531424;27;20299;-73
2023/07/14 22:22:28;;;;;;;2.30;2.17;;;24.50;28.00;;;;;;10531373;27;20687;-73
2023/07/14 22:27:33;;;;;;;4.17;2.60;;;24.60;28.10;;;;;;10537474;27;20227;-73
2023/07/14 22:32:38;;;;;;;2.97;2.47;;;24.60;28.40;;;;;;10532646;27;20224;-73
2023/07/14 22:37:43;;;;;;;2.47;2.30;;;24.60;28.40;;;;;;10528980;28;20219;-73
2023/07/14 22:42:47;;;;;;;2.90;2.70;;;24.50;28.40;;;;;;10540886;27;20797;-73
2023/07/14 22:47:50;;;;;;;3.00;2.80;;;24.50;28.40;;;;;;10532098;28;20310;-73
2023/07/14 22:52:54;;;;;;;2.50;2.30;;;24.40;28.30;;;;;;10532612;27;20228;-73
2023/07/14 22:57:58;;;;;;;2.90;2.70;;;24.10;28.10;;;;;;10536446;27;20226;-73
2023/07/14 23:03:01;;;;;;;2.97;2.47;;;23.90;28.90;;;;;;10534953;27;20231;-71
2023/07/14 23:08:05;;;;;;;2.90;2.33;;;23.80;28.50;;;;;;10526968;28;20223;-72
2023/07/14 23:13:12;;;;;;;2.67;2.47;;;23.70;28.90;;;;;;10534482;27;20233;-73
2023/07/14 23:18:16;;;;;;;2.80;2.60;;;23.60;29.70;;;;;;10527707;28;20247;-68
2023/07/14 23:23:19;;;;;;;4.37;2.73;;;23.70;29.10;;;;;;10530078;28;20696;-67
2023/07/14 23:28:24;;;;;;;3.23;2.60;;;23.60;29.10;;;;;;10533561;27;20249;-68
2023/07/14 23:33:27;;;;;;;3.00;2.60;;;23.70;29.60;;;;;;10533024;27;20223;-68
2023/07/14 23:38:32;;;;;;;5.23;3.17;;;23.60;29.20;;;;;;10529688;27;20233;-68
2023/07/14 23:43:37;;;;;;;3.23;2.80;;;23.60;29.20;;;;;;10525940;28;20228;-68
2023/07/14 23:48:42;;;;;;;3.07;2.80;;;23.60;29.70;;;;;;10533099;27;20704;-68
2023/07/14 23:53:46;;;;;;;3.67;3.37;;;23.40;29.10;;;;;;10536155;27;20661;-68
2023/07/14 23:58:50;;;;;;;3.03;2.83;;;23.20;29.40;;;;;;10534254;27;20230;-68
